Latest Coastal Weather Observations for Brisbane Airport

IDQ60701

Issued at 5:35 am EST Sunday 20 April 2014 (issued every 10 minutes, with the page automatically refreshed every 10 minutes)

About coastal observations | Map of coastal stations | Coastal observations for QLD | Marine services | Other Formats
Station Details ID: 040842 Name: BRISBANE AERO Lat: -27.39 Lon: 153.13 Height: 4.51 m
Data from the previous 72 hours. | See also: Recent months at Brisbane Airport
Date/Time
EST
Temp

°C
Wind Pressure Rain
since 9am
mm
Weather Cloud Vis
km
Sea
Height
m
Swell
Dir
 
Speed
knots
Gust
knots
hPa Trend Height
m
Period
s
Dir
20/05:30am 14.8 SSW 7 8 1016.5 - 0.0 - Mostly clear 10 - - - -
20/05:00am 15.8 SSW 7 9 1016.3 - 0.0 - - 10 - - - -
20/04:30am 15.7 SSW 8 10 1016.1 - 0.0 - - 10 - - - -
20/04:00am 15.0 SSW 9 11 1015.9 - 0.0 - - 10 - - - -
20/03:30am 16.0 SSW 7 9 1015.8 - 0.0 - Mostly clear 10 - - - -
20/03:00am 14.8 SSW 5 7 1015.7 R 0.0 Fine Mostly clear 30 - - - -
20/02:30am 15.6 SSW 4 5 1015.7 - 0.0 - - 10 - - - -
20/02:00am 16.4 CALM 0 2 1015.7 - 0.0 - - 10 - - - -
20/01:30am 16.4 W 4 4 1015.8 - 0.0 - - 10 - - - -
20/01:00am 16.4 SW 4 5 1016.1 - 0.0 - - 10 - - - -
20/12:30am 16.6 SSW 4 5 1016.3 - 0.0 - - 10 - - - -
20/12:00am 17.9 SW 2 4 1016.3 R 0.0 Fine Clear 30 - - - -
 
Date/Time
EST
Temp

°C
Wind Pressure Rain
since 9am
mm
Weather Cloud Vis
km
Sea
Height
m
Swell
Dir
 
Speed
knots
Gust
knots
hPa Trend Height
m
Period
s
Dir
19/11:30pm 18.0 S 4 5 1016.4 - 0.0 - - 10 - - - -
19/11:00pm 18.4 SSW 4 5 1016.5 - 0.0 - - 10 - - - -
19/10:30pm 18.4 SW 1 4 1016.6 - 0.0 - - 10 - - - -
19/10:00pm 19.1 CALM 0 0 1016.5 - 0.0 - - 10 - - - -
19/09:30pm 20.0 E 1 5 1016.3 - 0.0 - - 10 - - - -
19/09:00pm 20.1 E 4 4 1016.2 R 0.0 Fine Clear 30 - - - -
19/08:30pm 21.2 E 3 4 1016.0 - 0.0 - - 10 - - - -
19/08:00pm 21.6 ENE 3 4 1015.7 - 0.0 - - 10 - - - -
19/07:30pm 22.0 E 5 6 1015.4 - 0.0 - - 10 - - - -
19/07:00pm 22.4 E 5 9 1015.0 - 0.0 - - 10 - - - -
19/06:30pm 22.6 E 6 9 1014.5 - 0.0 - - 10 - - - -
19/06:00pm 22.9 E 7 10 1014.1 R 0.0 Fine Clear 30 - - - -
19/05:30pm 22.1 NNE 5 6 1013.8 - 0.0 - - 10 - - - -
19/05:00pm 24.0 NNE 7 8 1013.5 - 0.0 - - 10 - - - -
19/04:30pm 24.9 NNE 8 10 1013.2 - 0.0 - - 10 - - - -
19/04:00pm 25.6 NNE 9 10 1012.9 - 0.0 - - 10 - - - -
19/03:30pm 26.7 N 7 11 1012.9 - 0.0 - - 10 - - - -
19/03:00pm 27.6 WSW 7 11 1012.9 F 0.0 Fine Clear 30 - - - -
19/02:30pm 27.4 WSW 5 9 1012.9 - 0.0 - - 10 - - - -
19/02:00pm 27.6 SW 9 15 1013.2 - 0.0 - - 10 - - - -
19/01:30pm 27.4 SSW 10 16 1013.4 - 0.0 - - 10 - - - -
19/01:00pm 27.0 SSW 11 15 1013.7 - 0.0 - - 10 - - - -
19/12:30pm 27.0 SW 10 16 1014.2 - 0.0 - - 10 - - - -
19/12:00pm 27.1 SW 13 18 1014.7 F 0.0 Fine Mostly clear 30 - - - -
19/11:30am 26.3 SSW 9 15 1015.3 - 0.0 - - 10 - - - -
19/11:00am 25.8 SSW 8 11 1015.9 - 0.0 - Mostly clear 10 - - - -
19/10:30am 25.3 SW 9 13 1016.3 - 0.0 - Mostly clear 10 - - - -
19/10:00am 24.2 SSW 9 13 1016.6 - 0.0 - - 10 - - - -
19/09:30am 23.2 SSW 11 15 1016.7 - 0.0 - - 10 - - - -
19/09:00am 22.1 SSW 7 9 1016.8 F 0.0 Fine Clear 30 - - - -
19/08:30am 20.2 SSW 5 7 1016.9 - 0.0 - - 10 - - - -
19/08:00am 18.4 S 5 6 1016.7 - 0.0 - - 10 - - - -
19/07:30am 17.0 S 1 4 1016.5 - 0.0 - - 10 - - - -
19/07:00am 15.6 SE 2 3 1016.4 - 0.0 - - 10 - - - -
19/06:30am 13.8 CALM 0 0 1016.1 - 0.0 - - 10 - - - -
19/06:00am 13.6 CALM 0 0 1015.9 F 0.0 Fine Clear 30 - - - -
19/05:30am 13.5 WSW 6 7 1015.7 - 0.0 - - 10 - - - -
19/05:00am 13.6 SW 6 7 1015.6 - 0.0 - - 10 - - - -
19/04:30am 14.5 SSW 5 6 1015.2 - 0.0 - - 10 - - - -
19/04:00am 14.8 W 7 7 1015.1 - 0.0 - - 10 - - - -
19/03:30am 14.6 SW 5 5 1015.1 - 0.0 - - 10 - - - -
19/03:00am 15.7 SSW 5 7 1015.2 R 0.0 Fine Clear 30 - - - -
19/02:30am 16.0 WSW 3 5 1015.4 - 0.0 - - 10 - - - -
19/02:00am 16.1 WSW 4 6 1015.4 - 0.0 - - 10 - - - -
19/01:30am 17.0 W 5 5 1015.4 - 0.0 - - 10 - - - -
19/01:00am 17.7 W 4 6 1015.5 - 0.0 - - 10 - - - -
19/12:30am 18.3 NNW 4 6 1015.6 - 0.0 - - 10 - - - -
19/12:00am 19.5 N 6 8 1015.6 R 0.0 Fine Clear 30 - - - -
 
Date/Time
EST
Temp

°C
Wind Pressure Rain
since 9am
mm
Weather Cloud Vis
km
Sea
Height
m
Swell
Dir
 
Speed
knots
Gust
knots
hPa Trend Height
m
Period
s
Dir
18/11:30pm 18.6 N 7 8 1015.7 - 0.0 - - 10 - - - -
18/11:00pm 18.5 N 5 7 1015.9 - 0.0 - - 10 - - - -
18/10:30pm 18.7 NNW 3 4 1016.0 - 0.0 - - 10 - - - -
18/10:00pm 19.0 NNW 1 3 1016.1 - 0.0 - - 10 - - - -
18/09:30pm 20.2 NW 6 12 1016.1 - 0.0 - - 10 - - - -
18/09:00pm 21.0 WNW 6 10 1015.9 R 0.0 Fine Mostly clear 30 - - - -
18/08:30pm 20.6 WNW 5 7 1015.7 - 0.0 - - 10 - - - -
18/08:00pm 20.7 N 9 11 1015.6 - 0.0 - - 10 - - - -
18/07:30pm 21.1 N 7 10 1015.1 - 0.0 - - 10 - - - -
18/07:00pm 21.5 N 10 11 1014.7 - 0.0 - - 10 - - - -
18/06:30pm 21.7 N 9 11 1014.3 - 0.0 - - 10 - - - -
18/06:00pm 22.0 N 12 15 1014.1 S 0.0 Fine Mostly clear 30 - - - -
18/05:30pm 22.3 N 9 11 1013.9 - 0.0 - - 10 - - - -
18/05:00pm 23.4 NNE 9 11 1013.6 - 0.0 - - 10 - - - -
18/04:30pm 24.3 NNE 9 11 1013.4 - 0.0 - - 10 - - - -
18/04:00pm 24.9 N 8 10 1013.2 - 0.0 - - 10 - - - -
18/03:30pm 25.2 N 11 13 1013.1 - 0.0 - Mostly clear 10 - - - -
18/03:00pm 25.7 NNE 10 13 1013.0 F 0.0 Fine Mostly clear 30 - - - -
18/02:30pm 25.6 NNE 11 14 1013.1 - 0.0 - Mostly clear 10 - - - -
18/02:00pm 26.3 NNE 8 10 1013.3 - 0.0 - Mostly clear 10 - - - -
18/01:30pm 26.0 NNE 7 8 1013.5 - 0.0 - Mostly clear 10 - - - -
18/01:00pm 25.1 NE 9 10 1014.0 - 0.0 - Mostly clear 10 - - - -
18/12:30pm 25.3 NNE 8 11 1014.4 - 0.0 - Mostly clear 10 - - - -
18/12:00pm 25.1 NNE 9 13 1015.0 F 0.0 Fine Partly cloudy 30 - - - -
18/11:30am 25.0 N 8 11 1015.6 - 0.0 - Cloudy 10 - - - -
18/11:00am 24.5 N 6 9 1016.2 - 0.0 - Mostly clear 10 - - - -
18/10:30am 23.1 NNE 4 8 1016.5 - 0.0 - Mostly clear 10 - - - -
18/10:00am 24.0 E 4 7 1016.7 - 0.0 - Mostly clear 10 - - - -
18/09:30am 23.0 S 5 7 1017.0 - 0.0 - Mostly clear 10 - - - -
18/09:00am 22.2 S 5 7 1017.2 F 0.0 Fine Mostly clear 30 - - - -
18/08:30am 21.4 S 7 9 1017.3 - 0.0 - Mostly clear 10 - - - -
18/08:00am 20.1 SSW 8 10 1017.3 - 0.0 - Partly cloudy 10 - - - -
18/07:30am 18.6 SSW 7 8 1017.2 - 0.0 - Mostly clear 10 - - - -
18/07:00am 17.2 SSW 6 8 1016.9 - 0.0 - Mostly clear 10 - - - -
18/06:30am 16.1 SSW 6 8 1016.6 - 0.0 - Mostly clear 10 - - - -
18/06:00am 16.0 SSW 5 6 1016.4 F 0.0 Fine Mostly clear 30 - - - -
18/05:30am 16.3 SSW 4 6 1016.2 - 0.0 - - 10 - - - -
18/05:00am 16.6 SSW 5 6 1016.1 - 0.0 - Mostly clear 10 - - - -
18/04:30am 17.0 SSW 6 7 1016.4 - 0.0 - Mostly clear 10 - - - -
18/04:00am 17.0 SSW 5 7 1016.2 - 0.0 - Mostly clear 10 - - - -
18/03:30am 18.6 SSW 5 5 1016.1 - 0.0 - Mostly clear 10 - - - -
18/03:00am 18.6 S 3 5 1016.2 F 0.0 Lightning Partly cloudy 30 - - - -
18/02:30am 18.7 S 4 5 1016.3 - 0.0 - Partly cloudy 10 - - - -
18/02:00am 18.9 S 4 6 1016.3 - 0.0 - Mostly clear 10 - - - -
18/01:30am 18.1 S 5 6 1016.6 - 0.0 - Mostly clear 10 - - - -
18/01:00am 17.8 CALM 0 0 1016.9 - 0.0 - Mostly clear 10 - - - -
18/12:30am 18.7 CALM 0 0 1017.0 - 0.0 - Mostly clear 10 - - - -
18/12:00am 18.4 SSW 2 4 1017.4 R 0.0 Fine Mostly cloudy 30 - - - -
 
Date/Time
EST
Temp

°C
Wind Pressure Rain
since 9am
mm
Weather Cloud Vis
km
Sea
Height
m
Swell
Dir
 
Speed
knots
Gust
knots
hPa Trend Height
m
Period
s
Dir
17/11:30pm 18.7 S 2 4 1017.5 - 0.0 - Mostly clear 10 - - - -
17/11:00pm 19.1 WSW 3 5 1017.5 - 0.0 - Mostly clear 10 - - - -
17/10:30pm 19.5 W 3 5 1017.5 - 0.0 - Partly cloudy 10 - - - -
17/10:00pm 19.6 W 1 4 1017.5 - 0.0 - Mostly clear 10 - - - -
17/09:30pm 20.1 CALM 0 0 1017.5 - 0.0 - Partly cloudy 10 - - - -
17/09:00pm 20.2 E 2 5 1017.2 R 0.0 Fine Partly cloudy 30 - - - -
17/08:30pm 20.9 E 4 5 1017.1 - 0.0 - Partly cloudy 10 - - - -
17/08:00pm 21.3 E 4 5 1016.8 - 0.0 - - 10 - - - -
17/07:30pm 21.9 E 4 5 1016.7 - 0.0 - - 10 - - - -
17/07:00pm 22.1 E 4 6 1016.3 - 0.0 - - 10 - - - -
17/06:30pm 22.0 E 4 5 1016.0 - 0.0 - - 10 - - - -
17/06:00pm 22.4 ENE 5 7 1015.6 R 0.0 Fine Mostly clear 30 - - - -
17/05:30pm 22.7 ENE 7 10 1015.4 - 0.0 - - 10 - - - -
17/05:00pm 23.3 ENE 8 12 1015.1 - 0.0 - Mostly clear 10 - - - -
17/04:30pm 23.9 ENE 9 13 1014.6 - 0.0 - Mostly clear 10 - - - -
17/04:00pm 24.3 ENE 7 10 1014.6 - 0.0 - Mostly clear 10 - - - -
17/03:30pm 25.2 ENE 7 9 1014.4 - 0.0 - Mostly clear 10 - - - -
17/03:00pm 25.2 NE 9 11 1014.4 F 0.0 Fine Mostly clear 40 - - - -
17/02:30pm 25.6 NE 9 13 1014.5 - 0.0 - Mostly clear 10 - - - -
17/02:00pm 25.7 NNE 11 14 1014.8 - 0.0 - Mostly clear 10 - - - -
17/01:30pm 26.0 NE 10 14 1015.1 - 0.0 - Mostly clear 10 - - - -
17/01:00pm 25.1 NE 10 13 1015.6 - 0.0 - Mostly clear 10 - - - -
17/12:30pm 25.5 NE 10 14 1015.9 - 0.0 - Mostly clear 10 - - - -
17/12:00pm 25.4 NE 10 12 1016.5 F 0.0 Fine Mostly clear 35 - - - -
17/11:30am 25.1 NNE 6 9 1017.0 - 0.0 - Mostly clear 10 - - - -
17/11:00am 24.9 S 4 8 1017.5 - 0.0 - Mostly clear 10 - - - -
17/10:30am 24.0 S 4 8 1017.8 - 0.0 - Mostly clear 10 - - - -
17/10:00am 23.1 S 7 9 1018.2 - 0.0 - Mostly clear 10 - - - -
17/09:30am 22.6 SW 8 14 1018.3 - 0.0 - Mostly clear 10 - - - -
17/09:00am 21.9 SSW 9 12 1018.2 S 0.0 Fine Mostly clear 35 - - - -
17/08:30am 21.4 SSW 9 12 1018.2 - 0.0 - Mostly clear 10 - - - -
17/08:00am 20.1 SSW 9 10 1018.1 - 0.0 - Mostly clear 10 - - - -
17/07:30am 18.6 SSW 5 7 1017.9 - 0.0 - Mostly clear 10 - - - -
17/07:00am 16.9 S 5 7 1017.6 - 0.0 - Mostly clear 10 - - - -
17/06:30am 15.8 SSW 6 7 1017.3 - 0.0 - Mostly clear 10 - - - -
17/06:00am 15.2 SSW 4 6 1017.0 R 0.0 Fine Mostly clear 35 - - - -

Other Formats:

Comma delimited format used in spreadsheet applications
http://www.bom.gov.au/fwo/IDQ60701/IDQ60701.94578.axf

JavaScript Object Notation format (JSON) in row-major order
http://www.bom.gov.au/fwo/IDQ60701/IDQ60701.94578.json